createdAt,value
2017-09-21T00:00:36.783Z,1020.87
2017-09-21T00:01:45.622Z,1020.88
2017-09-21T00:02:54.464Z,1020.91
2017-09-21T00:04:03.304Z,1020.91
2017-09-21T00:05:12.144Z,1020.9
2017-09-21T00:06:21.463Z,1020.91
2017-09-21T00:07:30.305Z,1020.95
2017-09-21T00:08:39.145Z,1020.95
2017-09-21T00:09:47.985Z,1020.96
2017-09-21T00:10:56.827Z,1020.97
2017-09-21T00:12:05.827Z,1020.91
2017-09-21T00:13:14.663Z,1020.94
2017-09-21T00:14:23.506Z,1020.97
2017-09-21T00:15:32.347Z,1020.98
2017-09-21T00:16:41.187Z,1020.97
2017-09-21T00:17:50.078Z,1021
2017-09-21T00:18:58.916Z,1021
2017-09-21T00:20:07.757Z,1021.02
2017-09-21T00:21:16.600Z,1021.05
2017-09-21T00:22:25.443Z,1021.02
2017-09-21T00:23:34.768Z,1021.01
2017-09-21T00:24:43.610Z,1021
2017-09-21T00:25:52.453Z,1021.02
2017-09-21T00:27:01.631Z,1021.05
2017-09-21T00:28:10.468Z,1021
2017-09-21T00:29:19.459Z,1021.01
2017-09-21T00:30:28.301Z,1020.99
2017-09-21T00:31:37.142Z,1021
2017-09-21T00:32:45.983Z,1020.96
2017-09-21T00:33:54.822Z,1020.95
2017-09-21T00:35:03.961Z,1020.94
2017-09-21T00:36:12.800Z,1020.95
2017-09-21T00:37:21.641Z,1020.92
2017-09-21T00:38:30.481Z,1020.89
2017-09-21T00:39:39.323Z,1020.92
2017-09-21T00:40:48.362Z,1020.87
2017-09-21T00:41:57.202Z,1020.88
2017-09-21T00:43:06.042Z,1020.85
2017-09-21T00:44:14.883Z,1020.86
2017-09-21T00:45:24.066Z,1020.84
2017-09-21T00:46:33.138Z,1020.8
2017-09-21T00:47:41.944Z,1020.81
2017-09-21T00:48:50.784Z,1020.82
2017-09-21T00:49:59.635Z,1020.79
2017-09-21T00:51:08.476Z,1020.82
2017-09-21T00:52:17.568Z,1020.83
2017-09-21T00:53:26.413Z,1020.81
2017-09-21T00:54:35.252Z,1020.8
2017-09-21T00:55:44.093Z,1020.77
2017-09-21T00:56:52.932Z,1020.78
2017-09-21T00:58:02.021Z,1020.74
2017-09-21T00:59:10.864Z,1020.74
2017-09-21T01:00:19.705Z,1020.72
2017-09-21T01:01:28.547Z,1020.74
2017-09-21T01:02:37.391Z,1020.76
2017-09-21T01:03:46.433Z,1020.77
2017-09-21T01:04:55.273Z,1020.75
2017-09-21T01:06:04.110Z,1020.75
2017-09-21T01:07:12.952Z,1020.78
2017-09-21T01:08:21.793Z,1020.76
2017-09-21T01:09:30.683Z,1020.84
2017-09-21T01:10:39.525Z,1020.83
2017-09-21T01:11:48.365Z,1020.86
2017-09-21T01:12:57.205Z,1020.89
2017-09-21T01:14:06.045Z,1020.89
2017-09-21T01:15:14.935Z,1020.87
2017-09-21T01:16:23.775Z,1020.89
2017-09-21T01:17:32.623Z,1020.9
2017-09-21T01:18:41.464Z,1020.91
2017-09-21T01:19:50.304Z,1020.92
2017-09-21T01:20:59.247Z,1020.87
2017-09-21T01:22:08.114Z,1020.86
2017-09-21T01:23:16.950Z,1020.84
2017-09-21T01:24:25.792Z,1020.86
2017-09-21T01:25:34.634Z,1020.89
2017-09-21T01:26:43.625Z,1020.89
2017-09-21T01:27:52.464Z,1020.91
2017-09-21T01:29:01.307Z,1020.92
2017-09-21T01:30:10.148Z,1020.95
2017-09-21T01:31:19.323Z,1020.96
2017-09-21T01:32:28.164Z,1020.94
2017-09-21T01:33:37.007Z,1020.91
2017-09-21T01:34:45.850Z,1020.94
2017-09-21T01:35:54.689Z,1020.95
2017-09-21T01:37:03.533Z,1020.93
2017-09-21T01:38:12.673Z,1020.89
2017-09-21T01:39:21.511Z,1020.89
2017-09-21T01:40:30.352Z,1020.89
2017-09-21T01:41:39.194Z,1020.9
2017-09-21T01:42:48.037Z,1020.85
2017-09-21T01:43:57.177Z,1020.9
2017-09-21T01:45:06.018Z,1020.88
2017-09-21T01:46:14.863Z,1020.86
2017-09-21T01:47:23.705Z,1020.88
2017-09-21T01:48:32.544Z,1020.92
2017-09-21T01:49:41.586Z,1020.88
2017-09-21T01:50:50.425Z,1020.9
2017-09-21T01:51:59.265Z,1020.88
2017-09-21T01:53:08.105Z,1020.9
2017-09-21T01:54:16.945Z,1020.89
2017-09-21T01:55:25.882Z,1020.89
2017-09-21T01:56:34.717Z,1020.94
2017-09-21T01:57:43.559Z,1020.91
2017-09-21T01:58:52.403Z,1020.92
2017-09-21T02:00:01.245Z,1020.94
2017-09-21T02:01:10.237Z,1020.95
2017-09-21T02:02:19.079Z,1020.91
2017-09-21T02:03:27.919Z,1020.94
2017-09-21T02:04:36.763Z,1020.92
2017-09-21T02:05:45.609Z,1020.9
2017-09-21T02:06:54.603Z,1020.88
2017-09-21T02:08:03.443Z,1020.88
2017-09-21T02:09:12.286Z,1020.86
2017-09-21T02:10:21.127Z,1020.83
2017-09-21T02:11:29.968Z,1020.83
2017-09-21T02:12:38.812Z,1020.83
2017-09-21T02:13:47.987Z,1020.8
2017-09-21T02:14:56.831Z,1020.78
2017-09-21T02:16:05.671Z,1020.77
2017-09-21T02:17:14.516Z,1020.78
2017-09-21T02:18:23.609Z,1020.74
2017-09-21T02:19:32.449Z,1020.76
2017-09-21T02:20:41.293Z,1020.78
2017-09-21T02:21:50.137Z,1020.74
2017-09-21T02:22:58.977Z,1020.76
2017-09-21T02:24:07.820Z,1020.75
2017-09-21T02:25:16.660Z,1020.78
2017-09-21T02:26:25.503Z,1020.8
2017-09-21T02:27:34.345Z,1020.81
2017-09-21T02:28:43.191Z,1020.84
2017-09-21T02:29:52.418Z,1020.79
2017-09-21T02:31:01.258Z,1020.85
2017-09-21T02:32:10.103Z,1020.83
2017-09-21T02:33:18.947Z,1020.84
2017-09-21T02:34:28.128Z,1020.81
2017-09-21T02:35:37.071Z,1020.8
2017-09-21T02:36:45.912Z,1020.8
2017-09-21T02:37:54.755Z,1020.78
2017-09-21T02:39:03.600Z,1020.68
2017-09-21T02:40:12.446Z,1020.65
2017-09-21T02:41:22.032Z,1020.65
2017-09-21T02:42:30.877Z,1020.67
2017-09-21T02:43:39.724Z,1020.63
2017-09-21T02:44:48.564Z,1020.64
2017-09-21T02:45:57.412Z,1020.65
2017-09-21T02:47:06.307Z,1020.66
2017-09-21T02:48:15.150Z,1020.64
2017-09-21T02:49:23.997Z,1020.66
2017-09-21T02:50:33.507Z,1020.65
2017-09-21T02:51:42.348Z,1020.66
2017-09-21T02:52:51.731Z,1020.68
2017-09-21T02:54:00.574Z,1020.68
2017-09-21T02:55:09.416Z,1020.71
2017-09-21T02:56:18.263Z,1020.72
2017-09-21T02:57:27.110Z,1020.7
2017-09-21T02:58:36.436Z,1020.69
2017-09-21T02:59:45.278Z,1020.71
2017-09-21T03:00:54.122Z,1020.68
2017-09-21T03:02:02.965Z,1020.69
2017-09-21T03:03:11.811Z,1020.69
2017-09-21T03:04:20.802Z,1020.75
2017-09-21T03:05:29.646Z,1020.74
2017-09-21T03:06:38.490Z,1020.79
2017-09-21T03:07:47.332Z,1020.78
2017-09-21T03:08:56.173Z,1020.74
2017-09-21T03:10:05.397Z,1020.76
2017-09-21T03:11:14.240Z,1020.75
2017-09-21T03:12:23.080Z,1020.76
2017-09-21T03:13:31.924Z,1020.78
2017-09-21T03:14:41.099Z,1020.81
2017-09-21T03:15:50.091Z,1020.8
2017-09-21T03:16:58.935Z,1020.75
2017-09-21T03:18:07.777Z,1020.78
2017-09-21T03:19:16.620Z,1020.77
2017-09-21T03:20:25.460Z,1020.75
2017-09-21T03:21:34.353Z,1020.83
2017-09-21T03:22:43.194Z,1020.82
2017-09-21T03:23:52.038Z,1020.83
2017-09-21T03:25:00.882Z,1020.78
2017-09-21T03:26:09.729Z,1020.75
2017-09-21T03:27:18.675Z,1020.79
2017-09-21T03:28:27.517Z,1020.78
2017-09-21T03:29:36.360Z,1020.77
2017-09-21T03:30:45.201Z,1020.79
2017-09-21T03:31:54.051Z,1020.81
2017-09-21T03:33:02.994Z,1020.77
2017-09-21T03:34:11.837Z,1020.76
2017-09-21T03:35:20.681Z,1020.75
2017-09-21T03:36:29.526Z,1020.72
2017-09-21T03:37:38.368Z,1020.63
2017-09-21T03:38:47.360Z,1020.65
2017-09-21T03:39:56.204Z,1020.64
2017-09-21T03:41:05.048Z,1020.61
2017-09-21T03:42:13.892Z,1020.61
2017-09-21T03:43:22.734Z,1020.61
2017-09-21T03:44:31.725Z,1020.6
2017-09-21T03:45:40.569Z,1020.64
2017-09-21T03:46:49.410Z,1020.58
2017-09-21T03:47:58.253Z,1020.6
2017-09-21T03:49:07.098Z,1020.61
2017-09-21T03:50:15.943Z,1020.56
2017-09-21T03:51:24.783Z,1020.61
2017-09-21T03:52:33.624Z,1020.68
2017-09-21T03:53:42.466Z,1020.64
2017-09-21T03:54:51.311Z,1020.63
2017-09-21T03:56:00.792Z,1020.65
2017-09-21T03:57:09.635Z,1020.67
2017-09-21T03:58:18.809Z,1020.68
2017-09-21T03:59:27.651Z,1020.66
2017-09-21T04:00:36.834Z,1020.72
2017-09-21T04:01:45.823Z,1020.67
2017-09-21T04:02:54.666Z,1020.69
2017-09-21T04:04:03.509Z,1020.73
2017-09-21T04:05:12.352Z,1020.71
2017-09-21T04:06:21.193Z,1020.73
2017-09-21T04:07:30.087Z,1020.71
2017-09-21T04:08:38.928Z,1020.69
2017-09-21T04:09:47.768Z,1020.72
2017-09-21T04:10:56.612Z,1020.7
2017-09-21T04:12:05.784Z,1020.74
2017-09-21T04:13:14.776Z,1020.76
2017-09-21T04:14:23.620Z,1020.71
2017-09-21T04:15:32.460Z,1020.74
2017-09-21T04:16:41.300Z,1020.77
2017-09-21T04:17:50.140Z,1020.78
2017-09-21T04:18:59.180Z,1020.79
2017-09-21T04:20:08.019Z,1020.82
2017-09-21T04:21:16.858Z,1020.84
2017-09-21T04:22:25.699Z,1020.87
2017-09-21T04:23:34.879Z,1020.84
2017-09-21T04:24:43.764Z,1020.91
2017-09-21T04:25:52.609Z,1020.9
2017-09-21T04:27:01.450Z,1020.93
2017-09-21T04:28:10.291Z,1020.87
2017-09-21T04:29:19.132Z,1020.9
2017-09-21T04:30:28.075Z,1020.93
2017-09-21T04:31:36.915Z,1020.88
2017-09-21T04:32:46.088Z,1020.88
2017-09-21T04:33:54.928Z,1020.93
2017-09-21T04:35:03.772Z,1020.92
2017-09-21T04:36:12.765Z,1020.94
2017-09-21T04:37:21.607Z,1020.94
2017-09-21T04:38:30.457Z,1020.94
2017-09-21T04:39:39.301Z,1021.01
2017-09-21T04:40:48.141Z,1021.01
2017-09-21T04:41:57.180Z,1020.99
2017-09-21T04:43:06.024Z,1021.05
2017-09-21T04:44:14.865Z,1021.02
2017-09-21T04:45:23.704Z,1020.99
2017-09-21T04:46:32.548Z,1021.04
2017-09-21T04:47:41.924Z,1020.97
2017-09-21T04:48:50.765Z,1020.99
2017-09-21T04:49:59.612Z,1020.99
2017-09-21T04:51:08.450Z,1021
2017-09-21T04:52:17.294Z,1021.02
2017-09-21T04:53:26.186Z,1020.99
2017-09-21T04:54:35.029Z,1020.97
2017-09-21T04:55:43.869Z,1020.94
2017-09-21T04:56:52.716Z,1020.97
2017-09-21T04:58:01.888Z,1020.91
2017-09-21T04:59:10.880Z,1020.93
2017-09-21T05:00:19.723Z,1020.9
2017-09-21T05:01:28.567Z,1020.9
2017-09-21T05:02:37.412Z,1020.89
2017-09-21T05:03:46.255Z,1020.88
2017-09-21T05:04:55.397Z,1020.88
2017-09-21T05:06:04.246Z,1020.91
2017-09-21T05:07:13.426Z,1020.94
2017-09-21T05:08:22.269Z,1020.93
2017-09-21T05:09:31.111Z,1020.91
2017-09-21T05:10:40.032Z,1020.94
2017-09-21T05:11:49.184Z,1020.93
2017-09-21T05:12:58.028Z,1020.97
2017-09-21T05:14:06.874Z,1020.93
2017-09-21T05:15:15.718Z,1020.96
2017-09-21T05:16:24.713Z,1020.96
2017-09-21T05:17:33.557Z,1020.98
2017-09-21T05:18:42.401Z,1020.9
2017-09-21T05:19:51.241Z,1020.95
2017-09-21T05:21:00.085Z,1020.98
2017-09-21T05:22:09.178Z,1021.02
2017-09-21T05:23:18.022Z,1021.01
2017-09-21T05:24:27.198Z,1021.03
2017-09-21T05:25:36.045Z,1021.06
2017-09-21T05:26:44.888Z,1021.04
2017-09-21T05:27:53.733Z,1021.09
2017-09-21T05:29:02.578Z,1021.11
2017-09-21T05:30:11.419Z,1021.1
2017-09-21T05:31:20.264Z,1021.09
2017-09-21T05:32:29.106Z,1021.09
2017-09-21T05:33:38.100Z,1021.08
2017-09-21T05:34:46.941Z,1021.08
2017-09-21T05:35:55.781Z,1021.02
2017-09-21T05:37:04.623Z,1021.03
2017-09-21T05:38:13.468Z,1020.98
2017-09-21T05:39:22.361Z,1020.98
2017-09-21T05:40:31.204Z,1020.99
2017-09-21T05:41:40.042Z,1021
2017-09-21T05:42:48.884Z,1021.01
2017-09-21T05:43:58.080Z,1021
2017-09-21T05:45:07.075Z,1021.02
2017-09-21T05:46:15.919Z,1021.04
2017-09-21T05:47:25.089Z,1021.01
2017-09-21T05:48:33.933Z,1021.01
2017-09-21T05:49:42.777Z,1021.08
2017-09-21T05:50:51.820Z,1021.03
2017-09-21T05:52:00.664Z,1021.01
2017-09-21T05:53:09.523Z,1021.02
2017-09-21T05:54:18.352Z,1021
2017-09-21T05:55:27.198Z,1021.02
2017-09-21T05:56:36.094Z,1021.06
2017-09-21T05:57:44.937Z,1021.06
2017-09-21T05:58:53.782Z,1021.1
2017-09-21T06:00:02.634Z,1021.14
2017-09-21T06:01:11.809Z,1021.14
2017-09-21T06:02:20.702Z,1021.14
2017-09-21T06:03:29.545Z,1021.18
2017-09-21T06:04:38.388Z,1021.15
2017-09-21T06:05:47.238Z,1021.16
2017-09-21T06:06:56.076Z,1021.14
2017-09-21T06:08:04.970Z,1021.17
2017-09-21T06:09:13.814Z,1021.19
2017-09-21T06:10:22.993Z,1021.2
2017-09-21T06:11:31.838Z,1021.16
2017-09-21T06:12:40.684Z,1021.18
2017-09-21T06:13:49.682Z,1021.17
2017-09-21T06:14:58.861Z,1021.17
2017-09-21T06:16:07.703Z,1021.18
2017-09-21T06:17:16.546Z,1021.17
2017-09-21T06:18:25.389Z,1021.17
2017-09-21T06:19:34.283Z,1021.18
2017-09-21T06:20:43.127Z,1021.14
2017-09-21T06:21:51.968Z,1021.13
2017-09-21T06:23:00.812Z,1021.11
2017-09-21T06:24:09.654Z,1021.12
2017-09-21T06:25:18.598Z,1021.12
2017-09-21T06:26:27.439Z,1021.12
2017-09-21T06:27:36.284Z,1021.14
2017-09-21T06:28:45.130Z,1021.16
2017-09-21T06:29:53.974Z,1021.19
2017-09-21T06:31:02.969Z,1021.14
2017-09-21T06:32:11.817Z,1021.23
2017-09-21T06:33:20.994Z,1021.17
2017-09-21T06:34:29.838Z,1021.2
2017-09-21T06:35:39.017Z,1021.16
2017-09-21T06:36:48.011Z,1021.13
2017-09-21T06:37:56.855Z,1021.14
2017-09-21T06:39:06.036Z,1021.15
2017-09-21T06:40:14.880Z,1021.15
2017-09-21T06:41:23.723Z,1021.16
2017-09-21T06:42:32.748Z,1021.19
2017-09-21T06:43:41.571Z,1021.21
2017-09-21T06:44:50.414Z,1021.24
2017-09-21T06:45:59.256Z,1021.25
2017-09-21T06:47:08.116Z,1021.27
2017-09-21T06:48:17.110Z,1021.28
2017-09-21T06:49:25.985Z,1021.3
2017-09-21T06:50:35.167Z,1021.27
2017-09-21T06:51:44.013Z,1021.31
2017-09-21T06:52:52.856Z,1021.31
2017-09-21T06:54:02.130Z,1021.31
2017-09-21T06:55:10.974Z,1021.31
2017-09-21T06:56:19.825Z,1021.36
2017-09-21T06:57:28.672Z,1021.38
2017-09-21T06:58:37.523Z,1021.39
2017-09-21T06:59:46.421Z,1021.42
2017-09-21T07:00:55.263Z,1021.42
2017-09-21T07:02:04.106Z,1021.46
2017-09-21T07:03:12.950Z,1021.46
2017-09-21T07:04:22.129Z,1021.45
2017-09-21T07:05:31.273Z,1021.42
2017-09-21T07:06:40.117Z,1021.41
2017-09-21T07:07:48.959Z,1021.41
2017-09-21T07:08:57.806Z,1021.42
2017-09-21T07:10:06.986Z,1021.42
2017-09-21T07:11:16.132Z,1021.41
2017-09-21T07:12:24.977Z,1021.41
2017-09-21T07:13:33.823Z,1021.4
2017-09-21T07:14:42.667Z,1021.42
2017-09-21T07:15:51.512Z,1021.43
2017-09-21T07:17:00.510Z,1021.43
2017-09-21T07:18:09.356Z,1021.47
2017-09-21T07:19:18.199Z,1021.49
2017-09-21T07:20:27.043Z,1021.48
2017-09-21T07:21:35.887Z,1021.51
2017-09-21T07:22:44.833Z,1021.49
2017-09-21T07:23:53.699Z,1021.49
2017-09-21T07:25:02.877Z,1021.54
2017-09-21T07:26:12.057Z,1021.54
2017-09-21T07:27:20.901Z,1021.55
2017-09-21T07:28:29.895Z,1021.56
2017-09-21T07:29:38.739Z,1021.57
2017-09-21T07:30:47.585Z,1021.54
2017-09-21T07:31:56.430Z,1021.55
2017-09-21T07:33:05.275Z,1021.54
2017-09-21T07:34:14.166Z,1021.56
2017-09-21T07:35:23.357Z,1021.52
2017-09-21T07:36:32.206Z,1021.55
2017-09-21T07:37:41.088Z,1021.54
2017-09-21T07:38:49.935Z,1021.56
2017-09-21T07:39:58.840Z,1021.52
2017-09-21T07:41:07.689Z,1021.51
2017-09-21T07:42:16.543Z,1021.53
2017-09-21T07:43:25.391Z,1021.53
2017-09-21T07:44:34.235Z,1021.58
2017-09-21T07:45:43.382Z,1021.56
2017-09-21T07:46:52.229Z,1021.55
2017-09-21T07:48:01.075Z,1021.54
2017-09-21T07:49:09.918Z,1021.55
2017-09-21T07:50:18.764Z,1021.54
2017-09-21T07:51:28.093Z,1021.5
2017-09-21T07:52:37.280Z,1021.48
2017-09-21T07:53:46.136Z,1021.54
2017-09-21T07:54:54.982Z,1021.49
2017-09-21T07:56:03.825Z,1021.55
2017-09-21T07:57:12.820Z,1021.57
2017-09-21T07:58:21.996Z,1021.57
2017-09-21T07:59:30.841Z,1021.58
2017-09-21T08:00:39.687Z,1021.64
2017-09-21T08:01:48.537Z,1021.61
2017-09-21T08:02:57.582Z,1021.63
2017-09-21T08:04:06.430Z,1021.65
2017-09-21T08:05:15.275Z,1021.64
2017-09-21T08:06:24.120Z,1021.65
2017-09-21T08:07:32.965Z,1021.65
2017-09-21T08:08:42.208Z,1021.68
2017-09-21T08:09:51.386Z,1021.67
2017-09-21T08:11:00.231Z,1021.65
2017-09-21T08:12:09.411Z,1021.65
2017-09-21T08:13:18.592Z,1021.65
2017-09-21T08:14:27.789Z,1021.69
2017-09-21T08:15:36.634Z,1021.71
2017-09-21T08:16:45.478Z,1021.71
2017-09-21T08:17:54.325Z,1021.67
2017-09-21T08:19:03.169Z,1021.67
2017-09-21T08:20:12.167Z,1021.71
2017-09-21T08:21:21.012Z,1021.68
2017-09-21T08:22:29.857Z,1021.68
2017-09-21T08:23:38.711Z,1021.7
2017-09-21T08:24:47.559Z,1021.68
2017-09-21T08:25:56.548Z,1021.66
2017-09-21T08:27:05.393Z,1021.65
2017-09-21T08:28:14.239Z,1021.63
2017-09-21T08:29:23.085Z,1021.7
2017-09-21T08:30:32.261Z,1021.72
2017-09-21T08:31:41.694Z,1021.7
2017-09-21T08:32:50.537Z,1021.71
2017-09-21T08:33:59.383Z,1021.72
2017-09-21T08:35:08.232Z,1021.73
2017-09-21T08:36:17.079Z,1021.72
2017-09-21T08:37:26.072Z,1021.68
2017-09-21T08:38:34.918Z,1021.75
2017-09-21T08:39:43.761Z,1021.73
2017-09-21T08:40:52.610Z,1021.7
2017-09-21T08:42:01.782Z,1021.75
2017-09-21T08:43:10.876Z,1021.76
2017-09-21T08:44:19.721Z,1021.73
2017-09-21T08:45:28.566Z,1021.71
2017-09-21T08:46:37.412Z,1021.71
2017-09-21T08:47:46.256Z,1021.69
2017-09-21T08:48:55.202Z,1021.7
2017-09-21T08:50:04.046Z,1021.71
2017-09-21T08:51:13.225Z,1021.64
2017-09-21T08:52:22.071Z,1021.69
2017-09-21T08:53:30.914Z,1021.66
2017-09-21T08:54:39.911Z,1021.68
2017-09-21T08:55:48.759Z,1021.64
2017-09-21T08:56:57.604Z,1021.67
2017-09-21T08:58:06.449Z,1021.59
2017-09-21T08:59:15.291Z,1021.64
2017-09-21T09:00:24.286Z,1021.61
2017-09-21T09:01:33.132Z,1021.61
2017-09-21T09:02:42.310Z,1021.62
2017-09-21T09:03:51.157Z,1021.58
2017-09-21T09:05:00.000Z,1021.57
2017-09-21T09:06:08.946Z,1021.55
2017-09-21T09:07:17.791Z,1021.55
2017-09-21T09:08:26.637Z,1021.51
2017-09-21T09:09:35.483Z,1021.49
2017-09-21T09:10:44.329Z,1021.44
2017-09-21T09:11:53.276Z,1021.46
2017-09-21T09:13:02.123Z,1021.47
2017-09-21T09:14:10.967Z,1021.47
2017-09-21T09:15:19.813Z,1021.51
2017-09-21T09:16:28.657Z,1021.54
2017-09-21T09:17:37.554Z,1021.52
2017-09-21T09:18:46.400Z,1021.55
2017-09-21T09:19:55.245Z,1021.52
2017-09-21T09:21:04.091Z,1021.53
2017-09-21T09:22:12.939Z,1021.51
2017-09-21T09:23:21.936Z,1021.55
2017-09-21T09:24:30.781Z,1021.55
2017-09-21T09:25:39.961Z,1021.53
2017-09-21T09:26:48.805Z,1021.51
2017-09-21T09:27:57.650Z,1021.46
2017-09-21T09:29:06.546Z,1021.47
2017-09-21T09:30:15.391Z,1021.49
2017-09-21T09:31:24.242Z,1021.48
2017-09-21T09:32:33.088Z,1021.46
2017-09-21T09:33:41.933Z,1021.47
2017-09-21T09:34:50.834Z,1021.5
2017-09-21T09:35:59.674Z,1021.43
2017-09-21T09:37:08.519Z,1021.45
2017-09-21T09:38:17.363Z,1021.48
2017-09-21T09:39:26.213Z,1021.43
2017-09-21T09:40:35.357Z,1021.44
2017-09-21T09:41:44.206Z,1021.42
2017-09-21T09:42:53.402Z,1021.41
2017-09-21T09:44:02.249Z,1021.43
2017-09-21T09:45:11.095Z,1021.41
2017-09-21T09:46:19.990Z,1021.42
2017-09-21T09:47:29.178Z,1021.37
2017-09-21T09:48:38.023Z,1021.39
2017-09-21T09:49:46.868Z,1021.42
2017-09-21T09:50:55.717Z,1021.39
2017-09-21T09:52:04.814Z,1021.35
2017-09-21T09:53:13.662Z,1021.34
2017-09-21T09:54:22.510Z,1021.38
2017-09-21T09:55:31.693Z,1021.42
2017-09-21T09:56:40.542Z,1021.42
2017-09-21T09:57:49.772Z,1021.41
2017-09-21T09:58:58.618Z,1021.39
2017-09-21T10:00:07.464Z,1021.39
2017-09-21T10:01:16.313Z,1021.37
2017-09-21T10:02:25.157Z,1021.36
2017-09-21T10:03:34.153Z,1021.38
2017-09-21T10:04:43.049Z,1021.36
2017-09-21T10:05:51.895Z,1021.34
2017-09-21T10:07:00.749Z,1021.37
2017-09-21T10:08:09.593Z,1021.38
2017-09-21T10:09:18.873Z,1021.35
2017-09-21T10:10:28.055Z,1021.38
2017-09-21T10:11:37.000Z,1021.37
2017-09-21T10:12:46.127Z,1021.38
2017-09-21T10:13:55.062Z,1021.37
2017-09-21T10:15:04.365Z,1021.38
2017-09-21T10:16:13.264Z,1021.34
2017-09-21T10:17:22.174Z,1021.32
2017-09-21T10:18:31.032Z,1021.3
2017-09-21T10:19:39.912Z,1021.31
2017-09-21T10:20:48.869Z,1021.31
2017-09-21T10:21:57.770Z,1021.3
2017-09-21T10:23:06.670Z,1021.31
2017-09-21T10:24:15.574Z,1021.31
2017-09-21T10:25:24.514Z,1021.31
2017-09-21T10:26:33.560Z,1021.3
2017-09-21T10:27:42.487Z,1021.33
2017-09-21T10:28:51.750Z,1021.24
2017-09-21T10:30:00.607Z,1021.32
2017-09-21T10:31:09.510Z,1021.33
2017-09-21T10:32:18.419Z,1021.31
2017-09-21T10:33:27.350Z,1021.29
2017-09-21T10:34:36.243Z,1021.26
2017-09-21T10:35:45.165Z,1021.3
2017-09-21T10:36:54.072Z,1021.31
2017-09-21T10:38:03.131Z,1021.27
2017-09-21T10:39:12.023Z,1021.34
2017-09-21T10:40:21.264Z,1021.3
2017-09-21T10:41:30.135Z,1021.31
2017-09-21T10:42:39.052Z,1021.33
2017-09-21T10:43:48.350Z,1021.28
2017-09-21T10:44:57.381Z,1021.29
2017-09-21T10:46:06.322Z,1021.3
2017-09-21T10:47:15.242Z,1021.25
2017-09-21T10:48:24.137Z,1021.3
2017-09-21T10:51:11.692Z,1021.3
2017-09-21T10:52:20.583Z,1021.33
2017-09-21T10:53:29.490Z,1021.32
2017-09-21T10:54:38.829Z,1021.36
2017-09-21T10:55:47.764Z,1021.35
2017-09-21T10:56:56.621Z,1021.29
2017-09-21T10:58:05.515Z,1021.3
2017-09-21T10:59:14.372Z,1021.31
2017-09-21T11:00:23.405Z,1021.34
2017-09-21T11:01:32.373Z,1021.31
2017-09-21T11:02:41.233Z,1021.32
2017-09-21T11:03:50.167Z,1021.29
2017-09-21T11:04:59.051Z,1021.29
2017-09-21T11:06:08.215Z,1021.31
2017-09-21T11:07:17.101Z,1021.32
2017-09-21T11:08:26.059Z,1021.26
2017-09-21T11:09:34.963Z,1021.34
2017-09-21T11:10:43.911Z,1021.32
2017-09-21T11:11:52.981Z,1021.36
2017-09-21T11:13:01.851Z,1021.3
2017-09-21T11:14:10.778Z,1021.36
2017-09-21T11:15:19.664Z,1021.37
2017-09-21T11:16:28.620Z,1021.38
2017-09-21T11:17:37.660Z,1021.38
2017-09-21T11:18:46.541Z,1021.32
2017-09-21T11:19:55.444Z,1021.35
2017-09-21T11:21:04.380Z,1021.31
2017-09-21T11:22:13.253Z,1021.31
2017-09-21T11:23:22.565Z,1021.31
2017-09-21T11:24:31.468Z,1021.32
2017-09-21T11:25:40.393Z,1021.3
2017-09-21T11:26:49.306Z,1021.31
2017-09-21T11:27:58.558Z,1021.35
2017-09-21T11:29:07.577Z,1021.29
2017-09-21T11:30:16.491Z,1021.34
2017-09-21T11:31:25.378Z,1021.31
2017-09-21T11:32:34.316Z,1021.36
2017-09-21T11:33:43.212Z,1021.32
2017-09-21T11:34:52.329Z,1021.31
2017-09-21T11:36:01.210Z,1021.29
2017-09-21T11:37:10.455Z,1021.3
2017-09-21T11:38:19.329Z,1021.25
2017-09-21T11:39:28.263Z,1021.25
2017-09-21T11:40:37.411Z,1021.3
2017-09-21T11:41:46.353Z,1021.28
2017-09-21T11:42:55.275Z,1021.23
2017-09-21T11:44:04.379Z,1021.21
2017-09-21T11:45:13.338Z,1021.25
2017-09-21T11:46:22.551Z,1021.26
2017-09-21T11:47:31.463Z,1021.21
2017-09-21T11:48:40.649Z,1021.22
2017-09-21T11:49:49.507Z,1021.22
2017-09-21T11:50:58.370Z,1021.25
2017-09-21T11:52:07.425Z,1021.2
2017-09-21T11:53:16.602Z,1021.23
2017-09-21T11:54:25.450Z,1021.23
2017-09-21T11:55:34.302Z,1021.23
2017-09-21T11:56:43.156Z,1021.22
2017-09-21T11:57:52.157Z,1021.24
2017-09-21T11:59:01.008Z,1021.19
2017-09-21T12:00:09.862Z,1021.15
2017-09-21T12:01:18.712Z,1021.17
2017-09-21T12:02:27.562Z,1021.13
2017-09-21T12:03:36.511Z,1021.15
2017-09-21T12:04:45.360Z,1021.18
2017-09-21T12:05:54.211Z,1021.13
2017-09-21T12:07:03.068Z,1021.12
2017-09-21T12:08:11.921Z,1021.17
2017-09-21T12:09:21.031Z,1021.17
2017-09-21T12:10:29.885Z,1021.16
2017-09-21T12:11:38.738Z,1021.17
2017-09-21T12:12:47.590Z,1021.15
2017-09-21T12:13:56.442Z,1021.15
2017-09-21T12:15:05.344Z,1021.11
2017-09-21T12:16:14.197Z,1021.13
2017-09-21T12:17:23.054Z,1021.15
2017-09-21T12:18:31.909Z,1021.14
2017-09-21T12:19:40.758Z,1021.18
2017-09-21T12:20:49.910Z,1021.13
2017-09-21T12:21:58.763Z,1021.13
2017-09-21T12:23:07.616Z,1021.17
2017-09-21T12:24:16.478Z,1021.16
2017-09-21T12:25:25.333Z,1021.11
2017-09-21T12:26:34.333Z,1021.17
2017-09-21T12:27:43.516Z,1021.16
2017-09-21T12:28:52.366Z,1021.13
2017-09-21T12:30:01.214Z,1021.17
2017-09-21T12:31:10.065Z,1021.17
2017-09-21T12:32:19.068Z,1021.12
2017-09-21T12:33:27.921Z,1021.1
2017-09-21T12:34:36.770Z,1021.09
2017-09-21T12:35:45.625Z,1021.08
2017-09-21T12:36:54.480Z,1021.02
2017-09-21T12:38:03.345Z,1021.1
2017-09-21T12:39:12.184Z,1021.1
2017-09-21T12:40:21.036Z,1021.03
2017-09-21T12:41:29.919Z,1021.06
2017-09-21T12:42:38.771Z,1021.12
2017-09-21T12:43:47.625Z,1021.1
2017-09-21T12:44:56.478Z,1021.06
2017-09-21T12:46:05.331Z,1021.1
2017-09-21T12:47:14.187Z,1021.06
2017-09-21T12:48:23.046Z,1021.07
2017-09-21T12:49:32.227Z,1021.07
2017-09-21T12:50:41.081Z,1021.05
2017-09-21T12:51:49.931Z,1021.04
2017-09-21T12:52:58.781Z,1021.05
2017-09-21T12:54:07.634Z,1021.03
2017-09-21T12:55:16.488Z,1021.08
2017-09-21T12:56:25.348Z,1021.03
2017-09-21T12:57:34.201Z,1021.06
2017-09-21T12:58:43.051Z,1021.02
2017-09-21T12:59:51.906Z,1021.05
2017-09-21T13:01:00.752Z,1021
2017-09-21T13:02:09.601Z,1021.01
2017-09-21T13:03:18.751Z,1021.01
2017-09-21T13:04:27.604Z,1021
2017-09-21T13:05:37.130Z,1020.96
2017-09-21T13:06:45.982Z,1020.96
2017-09-21T13:07:54.832Z,1020.98
2017-09-21T13:09:03.685Z,1020.97
2017-09-21T13:10:12.536Z,1020.98
2017-09-21T13:11:21.720Z,1020.97
2017-09-21T13:12:30.568Z,1020.96
2017-09-21T13:13:39.427Z,1020.97
2017-09-21T13:14:48.332Z,1020.97
2017-09-21T13:15:57.537Z,1020.94
2017-09-21T13:17:06.389Z,1020.94
2017-09-21T13:18:15.237Z,1020.92
2017-09-21T13:19:24.088Z,1020.99
2017-09-21T13:20:33.038Z,1020.96
2017-09-21T13:21:41.890Z,1020.97
2017-09-21T13:22:50.740Z,1020.92
2017-09-21T13:23:59.589Z,1020.93
2017-09-21T13:25:08.440Z,1020.96
2017-09-21T13:26:17.600Z,1020.94
2017-09-21T13:27:26.595Z,1020.91
2017-09-21T13:28:35.559Z,1020.92
2017-09-21T13:29:44.506Z,1020.96
2017-09-21T13:30:53.489Z,1020.93
2017-09-21T13:32:02.575Z,1020.9
2017-09-21T13:33:11.466Z,1020.9
2017-09-21T13:34:20.443Z,1020.92
2017-09-21T13:35:29.344Z,1020.96
2017-09-21T13:36:38.229Z,1020.93
2017-09-21T13:37:47.391Z,1020.94
2017-09-21T13:38:56.680Z,1020.96
2017-09-21T13:40:05.577Z,1020.96
2017-09-21T13:41:14.518Z,1020.95
2017-09-21T13:42:23.470Z,1020.95
2017-09-21T13:43:32.546Z,1020.96
2017-09-21T13:44:41.531Z,1020.96
2017-09-21T13:45:50.736Z,1020.95
2017-09-21T13:46:59.652Z,1020.97
2017-09-21T13:48:08.575Z,1020.93
2017-09-21T13:49:17.488Z,1020.95
2017-09-21T13:50:26.440Z,1020.96
2017-09-21T13:51:35.372Z,1020.96
2017-09-21T13:52:44.373Z,1020.98
2017-09-21T13:53:53.656Z,1020.99
2017-09-21T13:55:04.157Z,1021.02
2017-09-21T13:56:13.170Z,1021.01
2017-09-21T13:57:22.185Z,1021.04
2017-09-21T13:58:31.158Z,1021.01